createdAt,value
2023-01-29T00:00:02.316Z,-0.38
2023-01-29T00:02:28.708Z,-0.44
2023-01-29T00:04:58.925Z,-0.46
2023-01-29T00:07:25.566Z,-0.50
2023-01-29T00:09:52.298Z,-0.53
2023-01-29T00:12:18.595Z,-0.53
2023-01-29T00:14:44.897Z,-0.40
2023-01-29T00:17:11.332Z,-0.30
2023-01-29T00:19:37.689Z,-0.29
2023-01-29T00:22:04.066Z,-0.18
2023-01-29T00:24:30.445Z,-0.16
2023-01-29T00:26:58.892Z,-0.27
2023-01-29T00:29:26.985Z,-0.20
2023-01-29T00:31:54.556Z,-0.19
2023-01-29T00:34:21.410Z,-0.24
2023-01-29T00:36:47.724Z,-0.28
2023-01-29T00:39:16.312Z,-0.33
2023-01-29T00:42:01.568Z,-0.35
2023-01-29T00:44:48.863Z,-0.34
2023-01-29T00:47:30.938Z,-0.43
2023-01-29T00:50:00.093Z,-0.44
2023-01-29T00:52:26.744Z,-0.39
2023-01-29T00:54:53.941Z,-0.45
2023-01-29T00:57:22.716Z,-0.51
2023-01-29T00:59:49.080Z,-0.45
2023-01-29T01:02:34.053Z,-0.46
2023-01-29T01:05:03.028Z,-0.46
2023-01-29T01:07:29.574Z,-0.45
2023-01-29T01:10:14.938Z,-0.51
2023-01-29T01:12:42.617Z,-0.53
2023-01-29T01:15:09.339Z,-0.54
2023-01-29T01:17:36.195Z,-0.62
2023-01-29T01:20:03.124Z,-0.61
2023-01-29T01:22:30.655Z,-0.60
2023-01-29T01:24:59.499Z,-0.67
2023-01-29T01:27:26.008Z,-0.67
2023-01-29T01:29:52.357Z,-0.73
2023-01-29T01:32:23.024Z,-0.80
2023-01-29T01:34:49.385Z,-0.70
2023-01-29T01:37:15.981Z,-0.73
2023-01-29T01:39:42.336Z,-0.77
2023-01-29T01:42:12.584Z,-0.83
2023-01-29T01:44:56.040Z,-0.96
2023-01-29T01:47:28.577Z,-1.02
2023-01-29T01:49:56.830Z,-0.97
2023-01-29T01:52:23.631Z,-0.99
2023-01-29T01:54:51.154Z,-0.96
2023-01-29T01:57:24.848Z,-0.97
2023-01-29T02:00:10.822Z,-0.90
2023-01-29T02:02:57.660Z,-0.86
2023-01-29T02:05:44.965Z,-0.89
2023-01-29T02:08:32.516Z,-0.90
2023-01-29T02:11:00.956Z,-0.97
2023-01-29T02:13:30.200Z,-0.93
2023-01-29T02:15:56.580Z,-0.87
2023-01-29T02:18:24.249Z,-0.87
2023-01-29T02:21:06.964Z,-0.89
2023-01-29T02:23:44.161Z,-1.02
2023-01-29T02:26:27.878Z,-1.07
2023-01-29T02:29:21.980Z,-1.08
2023-01-29T02:32:14.627Z,-1.09
2023-01-29T02:35:05.517Z,-1.13
2023-01-29T02:37:39.640Z,-1.04
2023-01-29T02:40:16.619Z,-0.98
2023-01-29T02:42:51.884Z,-1.04
2023-01-29T02:45:20.942Z,-1.07
2023-01-29T02:47:50.796Z,-1.05
2023-01-29T02:50:20.843Z,-1.04
2023-01-29T02:52:58.590Z,-1.00
2023-01-29T02:55:28.014Z,-1.15
2023-01-29T02:57:57.765Z,-1.15
2023-01-29T03:00:26.378Z,-1.16
2023-01-29T03:03:02.933Z,-1.16
2023-01-29T03:05:58.057Z,-1.15
2023-01-29T03:08:39.237Z,-1.17
2023-01-29T03:11:09.573Z,-1.16
2023-01-29T03:13:42.011Z,-1.16
2023-01-29T03:16:18.449Z,-1.19
2023-01-29T03:18:50.741Z,-1.19
2023-01-29T03:21:38.158Z,-1.20
2023-01-29T03:24:24.293Z,-1.25
2023-01-29T03:27:10.423Z,-1.27
2023-01-29T03:29:57.292Z,-1.30
2023-01-29T03:32:26.467Z,-1.32
2023-01-29T03:35:03.275Z,-1.42
2023-01-29T03:37:34.919Z,-1.45
2023-01-29T03:40:05.208Z,-1.52
2023-01-29T03:42:41.287Z,-1.43
2023-01-29T03:45:13.852Z,-1.35
2023-01-29T03:47:45.922Z,-1.29
2023-01-29T03:50:30.696Z,-1.34
2023-01-29T03:53:10.321Z,-1.36
2023-01-29T03:55:42.962Z,-1.28
2023-01-29T03:58:27.733Z,-1.21
2023-01-29T04:01:00.035Z,-1.21
2023-01-29T04:03:39.366Z,-1.21
2023-01-29T04:06:16.636Z,-1.20
2023-01-29T04:08:48.055Z,-1.19
2023-01-29T04:11:16.341Z,-1.17
2023-01-29T04:13:43.485Z,-1.23
2023-01-29T04:16:12.679Z,-1.33
2023-01-29T04:18:39.418Z,-1.38
2023-01-29T04:21:07.327Z,-1.29
2023-01-29T04:23:33.693Z,-1.32
2023-01-29T04:26:11.256Z,-1.35
2023-01-29T04:28:56.177Z,-1.35
2023-01-29T04:31:27.196Z,-1.38
2023-01-29T04:34:16.221Z,-1.45
2023-01-29T04:36:55.752Z,-1.40
2023-01-29T04:39:34.442Z,-1.45
2023-01-29T04:42:03.988Z,-1.44
2023-01-29T04:44:50.594Z,-1.34
2023-01-29T04:47:53.369Z,-1.30
2023-01-29T04:50:27.751Z,-1.32
2023-01-29T04:53:07.472Z,-1.27
2023-01-29T04:55:36.993Z,-1.24
2023-01-29T04:58:10.141Z,-1.25
2023-01-29T05:00:41.890Z,-1.31
2023-01-29T05:03:09.707Z,-1.23
2023-01-29T05:05:36.499Z,-1.27
2023-01-29T05:08:03.881Z,-1.43
2023-01-29T05:10:30.305Z,-1.51
2023-01-29T05:13:00.161Z,-1.46
2023-01-29T05:15:30.381Z,-1.47
2023-01-29T05:18:01.757Z,-1.37
2023-01-29T05:20:31.841Z,-1.31
2023-01-29T05:22:58.225Z,-1.36
2023-01-29T05:25:25.991Z,-1.42
2023-01-29T05:28:05.564Z,-1.43
2023-01-29T05:30:33.005Z,-1.57
2023-01-29T05:32:59.656Z,-1.53
2023-01-29T05:35:26.419Z,-1.35
2023-01-29T05:37:52.794Z,-1.32
2023-01-29T05:40:19.438Z,-1.33
2023-01-29T05:42:45.875Z,-1.32
2023-01-29T05:45:12.192Z,-1.35
2023-01-29T05:47:41.415Z,-1.26
2023-01-29T05:50:09.543Z,-1.22
2023-01-29T05:52:36.308Z,-1.20
2023-01-29T05:55:02.828Z,-1.19
2023-01-29T05:57:29.501Z,-1.30
2023-01-29T05:59:56.009Z,-1.22
2023-01-29T06:02:25.158Z,-1.35
2023-01-29T06:04:52.562Z,-1.27
2023-01-29T06:07:19.062Z,-1.27
2023-01-29T06:09:45.411Z,-1.34
2023-01-29T06:12:11.768Z,-1.25
2023-01-29T06:14:38.148Z,-1.24
2023-01-29T06:17:07.794Z,-1.22
2023-01-29T06:19:34.236Z,-1.20
2023-01-29T06:22:00.597Z,-1.20
2023-01-29T06:24:27.010Z,-1.30
2023-01-29T06:26:59.988Z,-1.34
2023-01-29T06:29:26.364Z,-1.34
2023-01-29T06:31:52.909Z,-1.34
2023-01-29T06:34:19.530Z,-1.36
2023-01-29T06:36:45.881Z,-1.34
2023-01-29T06:39:12.609Z,-1.36
2023-01-29T06:41:39.020Z,-1.38
2023-01-29T06:44:05.491Z,-1.45
2023-01-29T06:46:32.331Z,-1.47
2023-01-29T06:49:00.220Z,-1.58
2023-01-29T06:51:26.603Z,-1.72
2023-01-29T06:53:54.501Z,-1.82
2023-01-29T06:56:20.943Z,-1.89
2023-01-29T06:58:47.380Z,-1.93
2023-01-29T07:01:29.073Z,-1.89
2023-01-29T07:04:00.204Z,-1.80
2023-01-29T07:06:30.101Z,-1.72
2023-01-29T07:08:56.746Z,-1.64
2023-01-29T07:11:23.184Z,-1.57
2023-01-29T07:13:49.498Z,-1.57
2023-01-29T07:16:15.994Z,-1.45
2023-01-29T07:18:42.388Z,-1.42
2023-01-29T07:21:10.024Z,-1.40
2023-01-29T07:23:36.438Z,-1.37
2023-01-29T07:26:04.406Z,-1.26
2023-01-29T07:28:31.058Z,-1.27
2023-01-29T07:30:58.070Z,-1.24
2023-01-29T07:33:27.037Z,-1.12
2023-01-29T07:35:53.438Z,-1.00
2023-01-29T07:38:19.863Z,-0.89
2023-01-29T07:40:46.494Z,-0.86
2023-01-29T07:43:13.003Z,-0.78
2023-01-29T07:45:42.290Z,-0.67
2023-01-29T07:48:12.879Z,-0.55
2023-01-29T07:50:39.468Z,-0.51
2023-01-29T07:53:05.789Z,-0.42
2023-01-29T07:55:35.579Z,-0.37
2023-01-29T07:58:03.089Z,-0.29
2023-01-29T08:00:30.059Z,-0.26
2023-01-29T08:03:04.114Z,-0.15
2023-01-29T08:05:30.712Z,-0.04
2023-01-29T08:08:06.213Z,-0.02
2023-01-29T08:10:33.494Z,0.03
2023-01-29T08:13:12.123Z,0.08
2023-01-29T08:15:39.461Z,0.06
2023-01-29T08:18:30.253Z,0.09
2023-01-29T08:21:02.399Z,0.11
2023-01-29T08:23:28.975Z,0.23
2023-01-29T08:25:55.665Z,0.28
2023-01-29T08:28:22.162Z,0.32
2023-01-29T08:30:48.445Z,0.33
2023-01-29T08:33:16.196Z,0.32
2023-01-29T08:35:42.611Z,0.33
2023-01-29T08:38:09.071Z,0.38
2023-01-29T08:40:35.467Z,0.42
2023-01-29T08:43:07.834Z,0.45
2023-01-29T08:45:36.851Z,0.48
2023-01-29T08:48:03.692Z,0.48
2023-01-29T08:50:30.673Z,0.45
2023-01-29T08:52:58.463Z,0.45
2023-01-29T08:55:25.117Z,0.49
2023-01-29T08:57:51.495Z,0.70
2023-01-29T09:00:19.981Z,0.73
2023-01-29T09:02:46.409Z,0.68
2023-01-29T09:05:12.769Z,0.72
2023-01-29T09:07:39.102Z,0.79
2023-01-29T09:10:05.664Z,0.84
2023-01-29T09:12:32.043Z,0.89
2023-01-29T09:14:58.457Z,1.00
2023-01-29T09:17:24.854Z,1.06
2023-01-29T09:19:53.033Z,1.04
2023-01-29T09:22:21.032Z,1.08
2023-01-29T09:24:47.522Z,1.11
2023-01-29T09:27:15.016Z,1.11
2023-01-29T09:29:41.545Z,1.11
2023-01-29T09:32:07.915Z,1.18
2023-01-29T09:34:34.845Z,1.17
2023-01-29T09:37:01.317Z,1.23
2023-01-29T09:39:27.654Z,1.25
2023-01-29T09:42:02.572Z,1.28
2023-01-29T09:44:47.489Z,1.27
2023-01-29T09:47:15.806Z,1.30
2023-01-29T09:49:46.148Z,1.46
2023-01-29T09:52:27.101Z,1.57
2023-01-29T09:54:59.502Z,1.62
2023-01-29T09:57:31.694Z,1.70
2023-01-29T09:59:58.129Z,1.73
2023-01-29T10:02:27.702Z,1.77
2023-01-29T10:05:12.168Z,1.77
2023-01-29T10:07:57.874Z,1.80
2023-01-29T10:10:33.089Z,1.89
2023-01-29T10:13:19.697Z,1.97
2023-01-29T10:15:52.427Z,2.03
2023-01-29T10:18:21.747Z,2.01
2023-01-29T10:21:15.694Z,2.03
2023-01-29T10:23:47.419Z,2.08
2023-01-29T10:26:13.919Z,2.17
2023-01-29T10:28:46.265Z,2.23
2023-01-29T10:31:17.271Z,2.34
2023-01-29T10:34:01.554Z,2.55
2023-01-29T10:36:49.319Z,2.65
2023-01-29T10:39:23.083Z,2.66
2023-01-29T10:42:08.371Z,2.79
2023-01-29T10:44:44.148Z,2.80
2023-01-29T10:47:21.313Z,2.81
2023-01-29T10:49:53.792Z,2.69
2023-01-29T10:52:20.105Z,2.50
2023-01-29T10:55:05.281Z,2.54
2023-01-29T10:57:40.831Z,2.61
2023-01-29T11:00:15.112Z,2.53
2023-01-29T11:02:46.329Z,2.58
2023-01-29T11:05:31.652Z,2.55
2023-01-29T11:08:12.521Z,2.62
2023-01-29T11:10:47.868Z,2.62
2023-01-29T11:13:15.574Z,2.69
2023-01-29T11:15:42.110Z,2.70
2023-01-29T11:18:15.854Z,2.79
2023-01-29T11:20:43.309Z,2.74
2023-01-29T11:23:29.755Z,2.81
2023-01-29T11:25:57.734Z,2.93
2023-01-29T11:28:40.561Z,3.07
2023-01-29T11:31:19.681Z,3.10
2023-01-29T11:33:46.422Z,3.22
2023-01-29T11:36:36.120Z,3.23
2023-01-29T11:39:12.357Z,3.15
2023-01-29T11:42:00.874Z,3.18
2023-01-29T11:44:36.453Z,3.24
2023-01-29T11:47:18.138Z,3.30
2023-01-29T11:49:54.975Z,3.34
2023-01-29T11:52:22.972Z,3.38
2023-01-29T11:54:59.166Z,3.39
2023-01-29T11:57:25.490Z,3.39
2023-01-29T11:59:52.856Z,3.41
2023-01-29T12:02:41.840Z,3.39
2023-01-29T12:05:16.930Z,3.43
2023-01-29T12:07:44.242Z,3.79
2023-01-29T12:10:31.552Z,4.09
2023-01-29T12:13:07.321Z,4.24
2023-01-29T12:15:33.993Z,4.18
2023-01-29T12:18:04.512Z,4.36
2023-01-29T12:20:35.207Z,4.41
2023-01-29T12:23:07.411Z,4.44
2023-01-29T12:25:44.921Z,4.44
2023-01-29T12:28:19.273Z,4.42
2023-01-29T12:31:04.577Z,4.32
2023-01-29T12:33:38.956Z,4.16
2023-01-29T12:36:05.319Z,4.03
2023-01-29T12:38:31.598Z,4.07
2023-01-29T12:41:06.610Z,4.04
2023-01-29T12:43:41.914Z,4.07
2023-01-29T12:46:17.292Z,4.15
2023-01-29T12:48:44.165Z,4.09
2023-01-29T12:51:13.214Z,4.15
2023-01-29T12:54:09.637Z,4.09
2023-01-29T12:56:59.911Z,4.15
2023-01-29T12:59:47.739Z,4.22
2023-01-29T13:02:43.201Z,4.22
2023-01-29T13:05:26.866Z,4.21
2023-01-29T13:08:15.354Z,4.19
2023-01-29T13:10:45.537Z,4.20
2023-01-29T13:13:18.009Z,4.14
2023-01-29T13:15:44.698Z,4.10
2023-01-29T13:18:31.015Z,4.11
2023-01-29T13:20:58.493Z,4.10
2023-01-29T13:23:33.890Z,4.08
2023-01-29T13:26:02.692Z,4.08
2023-01-29T13:28:29.400Z,4.01
2023-01-29T13:31:13.110Z,4.13
2023-01-29T13:33:40.846Z,4.24
2023-01-29T13:36:14.273Z,4.33
2023-01-29T13:38:42.426Z,4.40
2023-01-29T13:41:08.823Z,4.42
2023-01-29T13:43:40.163Z,4.42
2023-01-29T13:46:14.787Z,4.47
2023-01-29T13:48:42.852Z,4.49
2023-01-29T13:51:33.283Z,4.58
2023-01-29T13:54:05.162Z,4.60
2023-01-29T13:56:34.584Z,4.64
2023-01-29T13:59:02.104Z,4.64
2023-01-29T14:01:49.295Z,4.61
2023-01-29T14:04:28.417Z,4.60
2023-01-29T14:06:58.934Z,4.60
2023-01-29T14:09:37.642Z,4.63
2023-01-29T14:12:24.550Z,4.60
2023-01-29T14:15:01.165Z,4.61
2023-01-29T14:17:32.907Z,4.61
2023-01-29T14:20:22.361Z,4.58
2023-01-29T14:23:00.017Z,4.63
2023-01-29T14:25:32.141Z,4.60
2023-01-29T14:28:01.801Z,4.59
2023-01-29T14:30:31.236Z,4.55
2023-01-29T14:32:57.943Z,4.55
2023-01-29T14:35:49.243Z,4.54
2023-01-29T14:38:15.623Z,4.49
2023-01-29T14:41:06.914Z,4.42
2023-01-29T14:43:51.716Z,4.37
2023-01-29T14:46:38.295Z,4.35
2023-01-29T14:49:44.776Z,4.34
2023-01-29T14:52:41.872Z,4.34
2023-01-29T14:55:40.603Z,4.29
2023-01-29T14:58:33.395Z,4.32
2023-01-29T15:01:20.253Z,4.34
2023-01-29T15:04:14.490Z,4.36
2023-01-29T15:07:13.061Z,4.40
2023-01-29T15:10:21.363Z,4.38
2023-01-29T15:13:32.997Z,4.34
2023-01-29T15:16:24.107Z,4.32
2023-01-29T15:19:06.497Z,4.33
2023-01-29T15:21:35.148Z,4.32
2023-01-29T15:24:06.343Z,4.30
2023-01-29T15:26:36.755Z,4.32
2023-01-29T15:29:07.284Z,4.31
2023-01-29T15:31:37.835Z,4.32
2023-01-29T15:34:06.040Z,4.26
2023-01-29T15:36:34.586Z,4.25
2023-01-29T15:39:15.993Z,4.29
2023-01-29T15:41:42.765Z,4.29
2023-01-29T15:44:27.748Z,4.28
2023-01-29T15:47:13.103Z,4.24
2023-01-29T15:49:39.973Z,4.26
2023-01-29T15:52:08.401Z,4.20
2023-01-29T15:54:35.444Z,4.18
2023-01-29T15:57:02.735Z,4.23
2023-01-29T15:59:31.138Z,4.24
2023-01-29T16:01:57.812Z,4.22
2023-01-29T16:04:30.849Z,4.21
2023-01-29T16:06:58.026Z,4.23
2023-01-29T16:09:39.785Z,4.23
2023-01-29T16:12:06.285Z,4.19
2023-01-29T16:14:33.679Z,4.20
2023-01-29T16:17:10.556Z,4.20
2023-01-29T16:19:36.974Z,4.20
2023-01-29T16:22:05.739Z,4.22
2023-01-29T16:24:34.735Z,4.18
2023-01-29T16:27:07.488Z,4.19
2023-01-29T16:29:34.552Z,4.23
2023-01-29T16:32:02.553Z,4.21
2023-01-29T16:34:28.963Z,4.11
2023-01-29T16:36:56.416Z,4.12
2023-01-29T16:39:24.293Z,4.16
2023-01-29T16:42:09.624Z,4.17
2023-01-29T16:44:38.140Z,4.14
2023-01-29T16:47:12.704Z,4.13
2023-01-29T16:49:39.100Z,4.10
2023-01-29T16:55:13.363Z,4.04
2023-01-29T16:57:40.448Z,4.02
2023-01-29T17:00:08.164Z,3.97
2023-01-29T17:02:38.363Z,3.98
2023-01-29T17:05:10.081Z,3.98
2023-01-29T17:07:36.868Z,4.00
2023-01-29T17:10:05.310Z,4.03
2023-01-29T17:12:34.139Z,4.04
2023-01-29T17:15:06.163Z,3.96
2023-01-29T17:17:36.077Z,3.87
2023-01-29T17:20:11.276Z,3.99
2023-01-29T17:22:38.265Z,4.00
2023-01-29T17:25:06.147Z,3.95
2023-01-29T17:27:32.550Z,4.00
2023-01-29T17:29:59.096Z,3.99
2023-01-29T17:32:27.489Z,3.99
2023-01-29T17:35:16.002Z,3.92
2023-01-29T17:37:42.648Z,3.98
2023-01-29T17:40:25.201Z,3.95
2023-01-29T17:42:51.544Z,3.93
2023-01-29T17:45:18.262Z,3.91
2023-01-29T17:47:53.701Z,3.92
2023-01-29T17:50:26.702Z,3.96
2023-01-29T17:52:53.869Z,3.94
2023-01-29T17:55:27.795Z,3.90
2023-01-29T17:57:54.102Z,3.97
2023-01-29T18:00:22.422Z,3.95
2023-01-29T18:02:49.262Z,3.96
2023-01-29T18:05:16.517Z,3.97
2023-01-29T18:07:47.026Z,3.96
2023-01-29T18:10:18.333Z,3.97
2023-01-29T18:12:45.210Z,3.95
2023-01-29T18:15:12.260Z,3.91
2023-01-29T18:17:39.562Z,3.94
2023-01-29T18:20:16.692Z,3.98
2023-01-29T18:22:43.303Z,3.92
2023-01-29T18:25:09.717Z,3.84
2023-01-29T18:27:36.033Z,3.86
2023-01-29T18:30:02.439Z,3.87
2023-01-29T18:32:29.451Z,3.84
2023-01-29T18:34:56.374Z,3.91
2023-01-29T18:37:22.762Z,3.91
2023-01-29T18:39:49.290Z,3.87
2023-01-29T18:42:17.290Z,3.91
2023-01-29T18:44:45.985Z,3.94
2023-01-29T18:47:12.658Z,3.83
2023-01-29T18:49:39.114Z,3.88
2023-01-29T18:52:06.167Z,3.83
2023-01-29T18:54:35.245Z,3.73
2023-01-29T18:57:13.710Z,3.69
2023-01-29T18:59:41.861Z,3.73
2023-01-29T19:02:11.513Z,3.72
2023-01-29T19:04:38.045Z,3.69
2023-01-29T19:07:22.956Z,3.71
2023-01-29T19:09:53.228Z,3.79
2023-01-29T19:12:42.175Z,3.80
2023-01-29T19:15:09.926Z,3.70
2023-01-29T19:17:36.604Z,3.79
2023-01-29T19:20:04.633Z,3.74
2023-01-29T19:22:31.768Z,3.76
2023-01-29T19:24:59.993Z,3.77
2023-01-29T19:27:30.198Z,3.77
2023-01-29T19:30:00.141Z,3.82
2023-01-29T19:32:28.740Z,3.78
2023-01-29T19:34:55.127Z,3.81
2023-01-29T19:37:21.592Z,3.72
2023-01-29T19:39:49.347Z,3.75
2023-01-29T19:42:15.780Z,3.76
2023-01-29T19:44:42.522Z,3.76
2023-01-29T19:47:09.119Z,3.79
2023-01-29T19:49:35.671Z,3.78
2023-01-29T19:52:04.038Z,3.77
2023-01-29T19:54:30.450Z,3.79
2023-01-29T19:56:57.127Z,3.80
2023-01-29T19:59:24.035Z,3.80
2023-01-29T20:01:50.970Z,3.81
2023-01-29T20:04:17.832Z,3.83
2023-01-29T20:06:44.558Z,3.84
2023-01-29T20:09:11.188Z,3.83
2023-01-29T20:11:37.628Z,3.90
2023-01-29T20:14:04.039Z,3.85
2023-01-29T20:16:30.376Z,3.84
2023-01-29T20:19:13.657Z,3.86
2023-01-29T20:21:41.779Z,3.83
2023-01-29T20:24:11.712Z,3.84
2023-01-29T20:26:38.080Z,3.87
2023-01-29T20:29:04.434Z,3.86
2023-01-29T20:31:31.036Z,3.87
2023-01-29T20:33:58.077Z,3.95
2023-01-29T20:36:24.441Z,3.96
2023-01-29T20:38:51.188Z,3.93
2023-01-29T20:41:19.211Z,3.99
2023-01-29T20:43:46.846Z,3.97
2023-01-29T20:46:13.373Z,3.95
2023-01-29T20:48:41.842Z,3.96
2023-01-29T20:51:09.914Z,3.93
2023-01-29T20:53:39.076Z,3.72
2023-01-29T20:56:05.884Z,3.95
2023-01-29T20:58:32.479Z,3.98
2023-01-29T21:00:59.326Z,3.99
2023-01-29T21:03:26.097Z,4.01
2023-01-29T21:05:54.291Z,4.02
2023-01-29T21:08:20.795Z,4.02
2023-01-29T21:10:49.096Z,4.04
2023-01-29T21:13:15.862Z,4.04
2023-01-29T21:15:42.692Z,4.07
2023-01-29T21:18:09.991Z,4.10
2023-01-29T21:20:57.346Z,4.06
2023-01-29T21:23:42.377Z,4.04
2023-01-29T21:26:27.148Z,4.10
2023-01-29T21:29:14.772Z,4.13
2023-01-29T21:31:59.919Z,4.12
2023-01-29T21:34:44.708Z,4.14
2023-01-29T21:37:31.499Z,4.16
2023-01-29T21:40:18.531Z,4.21
2023-01-29T21:43:03.874Z,4.21
2023-01-29T21:45:30.432Z,4.24
2023-01-29T21:47:57.160Z,4.24
2023-01-29T21:50:25.505Z,4.25
2023-01-29T21:52:52.074Z,4.25
2023-01-29T21:55:18.545Z,4.26
2023-01-29T21:57:46.681Z,4.30
2023-01-29T22:00:13.967Z,4.33
2023-01-29T22:02:40.551Z,4.31
2023-01-29T22:05:18.218Z,4.31
2023-01-29T22:07:51.494Z,4.31
2023-01-29T22:10:18.751Z,4.38
2023-01-29T22:12:45.645Z,4.34
2023-01-29T22:15:12.519Z,4.34
2023-01-29T22:17:41.385Z,4.32
2023-01-29T22:20:14.583Z,4.27
2023-01-29T22:22:44.353Z,4.31
2023-01-29T22:25:10.742Z,4.27
2023-01-29T22:27:37.410Z,4.27
2023-01-29T22:30:06.673Z,4.25
2023-01-29T22:32:33.307Z,4.28
2023-01-29T22:34:59.796Z,4.30
2023-01-29T22:37:27.542Z,4.31
2023-01-29T22:39:54.194Z,4.33
2023-01-29T22:42:20.951Z,4.27
2023-01-29T22:44:48.217Z,4.26
2023-01-29T22:47:14.836Z,4.25
2023-01-29T22:49:41.519Z,4.31
2023-01-29T22:52:10.969Z,4.35
2023-01-29T22:54:38.493Z,4.36
2023-01-29T22:57:05.684Z,4.34
2023-01-29T22:59:32.386Z,4.42
2023-01-29T23:01:58.788Z,4.42
2023-01-29T23:04:26.140Z,4.45
2023-01-29T23:06:52.557Z,4.39
2023-01-29T23:09:20.710Z,4.38
2023-01-29T23:11:47.215Z,4.38
2023-01-29T23:14:13.731Z,4.45
2023-01-29T23:16:43.506Z,4.44
2023-01-29T23:19:10.551Z,4.47
2023-01-29T23:21:38.970Z,4.47
2023-01-29T23:24:06.151Z,4.54
2023-01-29T23:26:51.551Z,4.56
2023-01-29T23:29:17.946Z,4.52
2023-01-29T23:31:44.344Z,4.50
2023-01-29T23:34:10.892Z,4.54
2023-01-29T23:36:37.223Z,4.51
2023-01-29T23:39:04.000Z,4.54
2023-01-29T23:41:30.461Z,4.51
2023-01-29T23:43:56.924Z,4.52
2023-01-29T23:46:23.404Z,4.55
2023-01-29T23:48:51.608Z,4.59
2023-01-29T23:51:18.233Z,4.57
2023-01-29T23:53:44.614Z,4.57
2023-01-29T23:56:12.575Z,4.60
2023-01-29T23:58:39.038Z,4.66
